createdAt,value
2023-04-04T00:01:26.826Z,6.4
2023-04-04T00:02:42.148Z,5.4
2023-04-04T00:03:58.427Z,6.2
2023-04-04T00:05:14.720Z,6.1
2023-04-04T00:06:31.012Z,8
2023-04-04T00:07:47.317Z,6.1
2023-04-04T00:09:03.608Z,6.5
2023-04-04T00:10:19.900Z,4.8
2023-04-04T00:11:36.190Z,6.3
2023-04-04T00:12:52.487Z,6.4
2023-04-04T00:14:08.790Z,5.3
2023-04-04T00:15:25.072Z,5.5
2023-04-04T00:16:41.377Z,7.8
2023-04-04T00:17:57.666Z,9.7
2023-04-04T00:19:12.977Z,5.9
2023-04-04T00:20:29.264Z,4.8
2023-04-04T00:21:45.558Z,6
2023-04-04T00:23:01.858Z,7.8
2023-04-04T00:24:18.144Z,7.2
2023-04-04T00:25:33.459Z,4.9
2023-04-04T00:26:48.785Z,6.2
2023-04-04T00:28:04.090Z,5.4
2023-04-04T00:29:19.395Z,5.7
2023-04-04T00:30:35.699Z,6.6
2023-04-04T00:31:51.989Z,6.6
2023-04-04T00:33:08.278Z,8.3
2023-04-04T00:34:24.581Z,7.1
2023-04-04T00:35:40.881Z,7.9
2023-04-04T00:36:57.165Z,6.2
2023-04-04T00:38:13.464Z,5.2
2023-04-04T00:39:29.748Z,7.1
2023-04-04T00:40:46.057Z,6
2023-04-04T00:42:02.337Z,7.4
2023-04-04T00:43:18.624Z,7.9
2023-04-04T00:44:34.926Z,7.3
2023-04-04T00:45:50.236Z,6.2
2023-04-04T00:47:06.545Z,7.6
2023-04-04T00:48:22.831Z,10.7
2023-04-04T00:49:39.113Z,6.8
2023-04-04T00:50:55.416Z,6.2
2023-04-04T00:52:11.705Z,7.2
2023-04-04T00:53:27.999Z,6.8
2023-04-04T00:54:43.320Z,6.4
2023-04-04T00:55:58.623Z,5.6
2023-04-04T00:57:14.912Z,10.1
2023-04-04T00:58:31.225Z,7.8
2023-04-04T00:59:47.504Z,6.7
2023-04-04T01:01:03.804Z,7.6
2023-04-04T01:02:20.094Z,5.5
2023-04-04T01:03:36.387Z,5.3
2023-04-04T01:04:52.691Z,8
2023-04-04T01:06:08.000Z,7.7
2023-04-04T01:07:25.287Z,8.8
2023-04-04T01:08:41.574Z,5.5
2023-04-04T01:09:57.864Z,7.4
2023-04-04T01:11:14.159Z,6.6
2023-04-04T01:12:29.463Z,8.1
2023-04-04T01:13:45.764Z,6.2
2023-04-04T01:15:02.057Z,9.3
2023-04-04T01:16:18.348Z,7
2023-04-04T01:17:34.650Z,8.6
2023-04-04T01:18:50.929Z,5
2023-04-04T01:20:07.221Z,6
2023-04-04T01:21:22.540Z,7
2023-04-04T01:22:37.849Z,9.5
2023-04-04T01:23:53.164Z,7.4
2023-04-04T01:25:08.491Z,6.9
2023-04-04T01:26:23.806Z,5.7
2023-04-04T01:27:39.108Z,5
2023-04-04T01:28:54.423Z,6.7
2023-04-04T01:30:09.733Z,9.4
2023-04-04T01:31:26.025Z,7.4
2023-04-04T01:32:42.326Z,7.7
2023-04-04T01:33:58.628Z,6.7
2023-04-04T01:35:14.916Z,7.4
2023-04-04T01:36:31.220Z,6.2
2023-04-04T01:37:47.500Z,7
2023-04-04T01:39:03.788Z,8.2
2023-04-04T01:40:20.099Z,5.7
2023-04-04T01:41:36.389Z,7.7
2023-04-04T01:42:52.674Z,5.5
2023-04-04T01:44:08.974Z,6.6
2023-04-04T01:45:25.260Z,6.1
2023-04-04T01:46:40.575Z,8.8
2023-04-04T01:47:56.869Z,9.4
2023-04-04T01:49:13.156Z,6.3
2023-04-04T01:50:29.452Z,6.6
2023-04-04T01:51:45.753Z,7
2023-04-04T01:53:02.044Z,7.8
2023-04-04T01:54:18.345Z,7.4
2023-04-04T01:55:33.666Z,8.1
2023-04-04T01:56:48.957Z,8
2023-04-04T01:58:04.277Z,6.1
2023-04-04T01:59:19.601Z,6.1
2023-04-04T02:00:35.876Z,8.3
2023-04-04T02:01:52.190Z,9.3
2023-04-04T02:03:08.478Z,6.3
2023-04-04T02:04:24.756Z,6.3
2023-04-04T02:05:41.056Z,6.8
2023-04-04T02:06:57.357Z,7.9
2023-04-04T02:08:13.643Z,7.9
2023-04-04T02:09:29.949Z,10
2023-04-04T02:10:46.242Z,7.6
2023-04-04T02:12:02.532Z,8.6
2023-04-04T02:13:18.820Z,5.6
2023-04-04T02:14:35.115Z,7.6
2023-04-04T02:15:50.425Z,6.1
2023-04-04T02:17:06.728Z,7.5
2023-04-04T02:18:23.014Z,6.8
2023-04-04T02:19:39.322Z,8.2
2023-04-04T02:20:55.608Z,5.6
2023-04-04T02:22:11.909Z,6.4
2023-04-04T02:23:28.207Z,5.4
2023-04-04T02:24:44.482Z,6.1
2023-04-04T02:25:59.797Z,5.4
2023-04-04T02:27:15.121Z,6.3
2023-04-04T02:28:31.407Z,8.6
2023-04-04T02:29:47.699Z,6.1
2023-04-04T02:31:04.004Z,9.4
2023-04-04T02:32:20.290Z,6.4
2023-04-04T02:33:36.592Z,7.9
2023-04-04T02:34:52.890Z,7.3
2023-04-04T02:36:09.185Z,7
2023-04-04T02:37:25.000Z,8.2
2023-04-04T02:38:41.753Z,6.6
2023-04-04T02:39:58.059Z,9.3
2023-04-04T02:41:14.357Z,5.8
2023-04-04T02:42:30.650Z,6
2023-04-04T02:43:45.966Z,7.5
2023-04-04T02:45:02.248Z,7.2
2023-04-04T02:46:18.547Z,7.8
2023-04-04T02:47:34.841Z,8
2023-04-04T02:48:51.132Z,7.7
2023-04-04T02:50:07.434Z,7.2
2023-04-04T02:51:23.725Z,7
2023-04-04T02:52:39.033Z,7.7
2023-04-04T02:53:54.352Z,7.7
2023-04-04T02:55:09.665Z,6.7
2023-04-04T02:56:24.964Z,9.8
2023-04-04T02:57:41.261Z,10.5
2023-04-04T02:58:57.555Z,9.2
2023-04-04T03:00:13.859Z,8.2
2023-04-04T03:01:30.148Z,8.3
2023-04-04T03:02:46.432Z,9.3
2023-04-04T03:04:02.747Z,8.9
2023-04-04T03:05:19.035Z,7.2
2023-04-04T03:06:35.331Z,7.2
2023-04-04T03:07:51.622Z,8.6
2023-04-04T03:09:07.905Z,7
2023-04-04T03:10:24.210Z,6.7
2023-04-04T03:11:40.499Z,7.2
2023-04-04T03:12:55.813Z,7.9
2023-04-04T03:14:12.102Z,9.7
2023-04-04T03:15:28.403Z,8.1
2023-04-04T03:16:44.684Z,8.5
2023-04-04T03:18:00.994Z,9.1
2023-04-04T03:19:17.277Z,7.5
2023-04-04T03:20:33.574Z,8.1
2023-04-04T03:21:48.884Z,11.8
2023-04-04T03:23:04.207Z,8.4
2023-04-04T03:24:19.513Z,10.2
2023-04-04T03:25:34.832Z,5.8
2023-04-04T03:26:51.115Z,7
2023-04-04T03:28:07.418Z,9
2023-04-04T03:29:23.710Z,7.6
2023-04-04T03:30:40.003Z,8.4
2023-04-04T03:31:56.295Z,7.8
2023-04-04T03:33:12.594Z,7.3
2023-04-04T03:34:28.883Z,8.1
2023-04-04T03:35:45.179Z,7.6
2023-04-04T03:37:01.483Z,6.2
2023-04-04T03:38:17.764Z,8.5
2023-04-04T03:39:34.063Z,6
2023-04-04T03:40:50.362Z,8.4
2023-04-04T03:42:05.672Z,11.4
2023-04-04T03:43:21.955Z,7.2
2023-04-04T03:44:38.251Z,10.3
2023-04-04T03:45:54.555Z,8.9
2023-04-04T03:47:10.835Z,10.2
2023-04-04T03:48:27.139Z,6.3
2023-04-04T03:49:43.429Z,7.7
2023-04-04T03:50:58.746Z,10.6
2023-04-04T03:52:14.053Z,8.4
2023-04-04T03:53:29.369Z,8.6
2023-04-04T03:54:44.684Z,7.5
2023-04-04T03:56:00.976Z,6.6
2023-04-04T03:57:17.276Z,8.6
2023-04-04T03:58:33.555Z,10
2023-04-04T03:59:49.851Z,5.9
2023-04-04T04:01:06.151Z,10.9
2023-04-04T04:02:22.438Z,7.4
2023-04-04T04:03:38.734Z,7.3
2023-04-04T04:04:55.036Z,9.5
2023-04-04T04:06:11.331Z,11.4
2023-04-04T04:07:27.613Z,9.2
2023-04-04T04:08:43.913Z,12
2023-04-04T04:10:00.206Z,8.3
2023-04-04T04:11:15.519Z,7
2023-04-04T04:12:31.761Z,7.2
2023-04-04T04:13:48.052Z,10.4
2023-04-04T04:15:04.297Z,7.9
2023-04-04T04:16:20.544Z,11.8
2023-04-04T04:17:36.833Z,8.5
2023-04-04T04:18:53.137Z,8.5
2023-04-04T04:20:08.461Z,5.8
2023-04-04T04:21:23.723Z,8.6
2023-04-04T04:22:40.016Z,7.8
2023-04-04T04:23:56.300Z,8.6
2023-04-04T04:25:12.558Z,10.8
2023-04-04T04:26:28.794Z,8.9
2023-04-04T04:27:45.043Z,7.7
2023-04-04T04:29:01.284Z,8.5
2023-04-04T04:30:17.516Z,8
2023-04-04T04:31:33.767Z,8.9
2023-04-04T04:32:49.991Z,9.5
2023-04-04T04:34:06.241Z,7.9
2023-04-04T04:35:22.474Z,10
2023-04-04T04:36:38.710Z,8
2023-04-04T04:37:53.976Z,8.7
2023-04-04T04:39:10.212Z,6.6
2023-04-04T04:40:26.466Z,11
2023-04-04T04:41:42.687Z,7.4
2023-04-04T04:42:58.931Z,8.1
2023-04-04T04:44:15.169Z,8
2023-04-04T04:45:31.410Z,6.9
2023-04-04T04:46:46.673Z,11.4
2023-04-04T04:48:01.930Z,8.7
2023-04-04T04:49:17.194Z,10
2023-04-04T04:50:32.452Z,10.3
2023-04-04T04:51:48.683Z,7.5
2023-04-04T04:53:04.932Z,10.3
2023-04-04T04:54:21.169Z,8.9
2023-04-04T04:55:37.403Z,8.7
2023-04-04T04:56:53.646Z,7.8
2023-04-04T04:58:09.896Z,9.2
2023-04-04T04:59:26.127Z,6.1
2023-04-04T05:00:42.377Z,15.5
2023-04-04T05:01:58.615Z,9.3
2023-04-04T05:03:14.859Z,11.8
2023-04-04T05:04:31.089Z,8.1
2023-04-04T05:05:47.337Z,6.5
2023-04-04T05:07:02.598Z,7.5
2023-04-04T05:08:18.830Z,9.2
2023-04-04T05:09:35.070Z,7.9
2023-04-04T05:10:51.313Z,8.2
2023-04-04T05:12:07.552Z,9.8
2023-04-04T05:13:23.786Z,13
2023-04-04T05:14:40.021Z,9.5
2023-04-04T05:15:55.289Z,5.9
2023-04-04T05:17:10.541Z,10.1
2023-04-04T05:18:25.806Z,7.7
2023-04-04T05:19:41.066Z,12.1
2023-04-04T05:20:57.313Z,8.9
2023-04-04T05:22:13.543Z,9.3
2023-04-04T05:23:29.788Z,9.1
2023-04-04T05:24:46.025Z,8
2023-04-04T05:26:02.259Z,7.6
2023-04-04T05:27:18.515Z,11
2023-04-04T05:28:34.738Z,8.8
2023-04-04T05:29:50.986Z,9.3
2023-04-04T05:31:07.234Z,7.4
2023-04-04T05:32:23.459Z,8.2
2023-04-04T05:33:39.704Z,8.2
2023-04-04T05:34:55.943Z,6.3
2023-04-04T05:36:11.207Z,7.9
2023-04-04T05:37:27.444Z,7.9
2023-04-04T05:38:43.684Z,10.5
2023-04-04T05:39:58.953Z,8.8
2023-04-04T05:41:15.176Z,9.2
2023-04-04T05:42:31.434Z,8.7
2023-04-04T05:43:47.657Z,10.1
2023-04-04T05:45:02.927Z,8
2023-04-04T05:46:18.181Z,8.7
2023-04-04T05:47:33.451Z,9.1
2023-04-04T05:48:48.704Z,8.3
2023-04-04T05:50:04.936Z,7.6
2023-04-04T05:51:21.172Z,8.9
2023-04-04T05:52:37.414Z,8.6
2023-04-04T05:53:53.657Z,6.9
2023-04-04T05:55:09.904Z,9.2
2023-04-04T05:56:26.146Z,8.7
2023-04-04T05:57:42.384Z,9.5
2023-04-04T05:58:58.617Z,9.1
2023-04-04T06:00:14.864Z,9
2023-04-04T06:01:31.100Z,10.1
2023-04-04T06:02:47.333Z,10.4
2023-04-04T06:04:03.592Z,11.2
2023-04-04T06:05:18.837Z,7.6
2023-04-04T06:06:35.075Z,8.5
2023-04-04T06:07:51.316Z,7.9
2023-04-04T06:09:07.556Z,12.9
2023-04-04T06:10:23.793Z,7.8
2023-04-04T06:11:40.036Z,10.6
2023-04-04T06:12:56.289Z,8
2023-04-04T06:14:11.539Z,9.6
2023-04-04T06:15:26.786Z,9.8
2023-04-04T06:16:43.031Z,10.2
2023-04-04T06:19:15.515Z,6.4
2023-04-04T06:20:31.751Z,8.7
2023-04-04T06:21:48.002Z,7.5
2023-04-04T06:23:04.236Z,6.1
2023-04-04T06:24:20.471Z,8.3
2023-04-04T06:25:36.710Z,13.5
2023-04-04T06:26:52.955Z,9.4
2023-04-04T06:28:09.195Z,8.1
2023-04-04T06:29:25.446Z,7.4
2023-04-04T06:30:41.683Z,8.1
2023-04-04T06:31:56.939Z,8.8
2023-04-04T06:33:13.176Z,8
2023-04-04T06:34:29.411Z,9.3
2023-04-04T06:35:45.643Z,12.1
2023-04-04T06:37:01.897Z,10.1
2023-04-04T06:38:18.128Z,8.3
2023-04-04T06:39:34.371Z,8.7
2023-04-04T06:40:50.613Z,8.6
2023-04-04T06:42:05.877Z,9.9
2023-04-04T06:43:21.125Z,7.9
2023-04-04T06:44:36.395Z,12.4
2023-04-04T06:45:51.651Z,7.4
2023-04-04T06:47:07.879Z,8.8
2023-04-04T06:48:24.126Z,7.2
2023-04-04T06:49:40.365Z,9.2
2023-04-04T06:50:56.613Z,8
2023-04-04T06:52:12.847Z,10.2
2023-04-04T06:53:29.084Z,8.7
2023-04-04T06:54:45.321Z,9
2023-04-04T06:56:01.575Z,8.3
2023-04-04T06:57:17.813Z,11.2
2023-04-04T06:58:34.060Z,8.8
2023-04-04T06:59:50.297Z,10.6
2023-04-04T07:01:06.525Z,8.3
2023-04-04T07:02:21.783Z,12.2
2023-04-04T07:03:38.021Z,8.7
2023-04-04T07:04:54.258Z,6.8
2023-04-04T07:06:10.498Z,10.2
2023-04-04T07:07:26.750Z,10.4
2023-04-04T07:08:42.989Z,12.8
2023-04-04T07:09:59.221Z,12.9
2023-04-04T07:11:14.490Z,10.7
2023-04-04T07:12:29.744Z,8
2023-04-04T07:13:45.004Z,13.6
2023-04-04T07:15:00.264Z,7.8
2023-04-04T07:16:16.494Z,8.1
2023-04-04T07:17:32.745Z,8.9
2023-04-04T07:18:48.982Z,9.4
2023-04-04T07:20:05.222Z,9.7
2023-04-04T07:21:21.462Z,8.2
2023-04-04T07:22:37.706Z,7.3
2023-04-04T07:23:53.955Z,8.9
2023-04-04T07:25:10.173Z,7.5
2023-04-04T07:26:26.426Z,8.1
2023-04-04T07:27:42.659Z,8.4
2023-04-04T07:28:58.913Z,9.1
2023-04-04T07:30:15.139Z,11
2023-04-04T07:31:30.409Z,8.3
2023-04-04T07:32:46.636Z,7.8
2023-04-04T07:34:02.872Z,8.4
2023-04-04T07:35:19.116Z,9.8
2023-04-04T07:36:35.358Z,11
2023-04-04T07:37:51.597Z,9
2023-04-04T07:39:07.843Z,10.1
2023-04-04T07:40:23.105Z,9.8
2023-04-04T07:41:38.363Z,9.3
2023-04-04T07:42:54.595Z,14.9
2023-04-04T07:44:10.824Z,7.6
2023-04-04T07:45:27.071Z,10.8
2023-04-04T07:46:43.311Z,10.2
2023-04-04T07:47:59.549Z,10.3
2023-04-04T07:49:15.785Z,9
2023-04-04T07:50:32.039Z,10.5
2023-04-04T07:51:48.277Z,9
2023-04-04T07:53:04.510Z,10.5
2023-04-04T07:54:20.762Z,10.3
2023-04-04T07:55:36.984Z,8.6
2023-04-04T07:56:53.227Z,11.1
2023-04-04T07:58:08.495Z,8.9
2023-04-04T07:59:24.720Z,8.4
2023-04-04T08:00:40.968Z,9.1
2023-04-04T08:01:57.206Z,8.1
2023-04-04T08:03:13.449Z,6.8
2023-04-04T08:04:29.697Z,8.9
2023-04-04T08:05:45.920Z,9.6
2023-04-04T08:07:01.193Z,8.3
2023-04-04T08:08:16.439Z,7.3
2023-04-04T08:09:31.709Z,9.7
2023-04-04T08:10:46.957Z,8.5
2023-04-04T08:12:02.232Z,8.7
2023-04-04T08:13:17.475Z,8.2
2023-04-04T08:14:33.721Z,8.5
2023-04-04T08:15:49.953Z,10.7
2023-04-04T08:17:06.192Z,8.7
2023-04-04T08:18:22.435Z,9.4
2023-04-04T08:19:38.679Z,10.6
2023-04-04T08:20:54.928Z,10.9
2023-04-04T08:22:11.165Z,8.4
2023-04-04T08:23:27.404Z,9.3
2023-04-04T08:24:43.636Z,9
2023-04-04T08:25:59.880Z,8.6
2023-04-04T08:27:16.130Z,9.1
2023-04-04T08:28:32.363Z,11.8
2023-04-04T08:29:47.608Z,11.6
2023-04-04T08:31:03.857Z,11.6
2023-04-04T08:32:20.107Z,6.9
2023-04-04T08:33:36.337Z,9.2
2023-04-04T08:34:52.579Z,10.5
2023-04-04T08:36:08.814Z,7.3
2023-04-04T08:37:25.066Z,7.3
2023-04-04T08:38:40.322Z,9
2023-04-04T08:39:55.565Z,9.4
2023-04-04T08:41:10.831Z,7.4
2023-04-04T08:42:26.086Z,8.6
2023-04-04T08:43:41.353Z,6.1
2023-04-04T08:44:56.612Z,8.3
2023-04-04T08:46:12.845Z,8.1
2023-04-04T08:47:29.085Z,8
2023-04-04T08:48:45.336Z,5.8
2023-04-04T08:50:01.561Z,7.5
2023-04-04T08:51:17.807Z,6.1
2023-04-04T08:52:34.048Z,6.9
2023-04-04T08:53:50.286Z,10
2023-04-04T08:55:06.533Z,8.2
2023-04-04T08:56:22.769Z,8.7
2023-04-04T08:57:39.005Z,7.4
2023-04-04T08:58:55.246Z,6
2023-04-04T09:00:11.478Z,9.1
2023-04-04T09:01:26.751Z,6.8
2023-04-04T09:02:42.972Z,6.6
2023-04-04T09:03:59.222Z,8.2
2023-04-04T09:05:15.459Z,4.7
2023-04-04T09:06:31.702Z,7.1
2023-04-04T09:07:47.945Z,6.7
2023-04-04T09:09:04.182Z,7.3
2023-04-04T09:10:19.448Z,7
2023-04-04T09:11:34.698Z,5.9
2023-04-04T09:12:50.931Z,5.8
2023-04-04T09:14:07.177Z,7
2023-04-04T09:15:23.426Z,5.5
2023-04-04T09:16:39.662Z,6.7
2023-04-04T09:17:55.903Z,5.2
2023-04-04T09:19:12.133Z,6.1
2023-04-04T09:20:28.377Z,6.2
2023-04-04T09:21:44.623Z,5.3
2023-04-04T09:23:00.859Z,6.3
2023-04-04T09:24:17.099Z,5.6
2023-04-04T09:25:33.328Z,5.2
2023-04-04T09:26:49.567Z,5.9
2023-04-04T09:28:04.836Z,6.6
2023-04-04T09:29:21.068Z,4.4
2023-04-04T09:30:37.317Z,6.4
2023-04-04T09:31:53.541Z,6.7
2023-04-04T09:33:09.797Z,5.7
2023-04-04T09:34:26.028Z,6.7
2023-04-04T09:35:42.268Z,6.2
2023-04-04T09:36:57.524Z,5.1
2023-04-04T09:38:12.783Z,5.8
2023-04-04T09:39:28.049Z,3.8
2023-04-04T09:40:43.307Z,6.4
2023-04-04T09:41:59.534Z,5.6
2023-04-04T09:43:15.783Z,4.4
2023-04-04T09:44:32.021Z,5.2
2023-04-04T09:45:48.268Z,4.6
2023-04-04T09:47:04.499Z,5
2023-04-04T09:48:20.752Z,5
2023-04-04T09:49:36.983Z,4.7
2023-04-04T09:50:53.219Z,6.4
2023-04-04T09:52:09.467Z,5.6
2023-04-04T09:53:25.701Z,4.7
2023-04-04T09:54:40.970Z,5.7
2023-04-04T09:55:57.197Z,4.8
2023-04-04T09:57:13.432Z,9.5
2023-04-04T09:58:29.682Z,8.2
2023-04-04T09:59:45.918Z,6.7
2023-04-04T10:01:02.156Z,7.4
2023-04-04T10:02:18.396Z,6.1
2023-04-04T10:03:34.641Z,4.7
2023-04-04T10:04:50.878Z,6.4
2023-04-04T10:06:06.144Z,7.2
2023-04-04T10:08:37.628Z,6.5
2023-04-04T10:09:52.908Z,7.4
2023-04-04T10:11:08.154Z,6.9
2023-04-04T10:12:23.400Z,6.8
2023-04-04T10:13:38.669Z,8.9
2023-04-04T10:14:54.914Z,7.5
2023-04-04T10:16:11.140Z,5.7
2023-04-04T10:17:27.381Z,5.7
2023-04-04T10:18:43.631Z,5.9
2023-04-04T10:19:59.869Z,5.7
2023-04-04T10:21:16.106Z,6
2023-04-04T10:22:32.351Z,5.6
2023-04-04T10:23:48.591Z,6.5
2023-04-04T10:25:04.819Z,5.6
2023-04-04T10:26:21.066Z,6.1
2023-04-04T10:27:37.293Z,6.4
2023-04-04T10:28:53.551Z,4.5
2023-04-04T10:30:08.792Z,7.3
2023-04-04T10:31:25.035Z,3.8
2023-04-04T10:32:41.279Z,8.9
2023-04-04T10:33:57.507Z,4.9
2023-04-04T10:35:13.763Z,7.7
2023-04-04T10:36:29.986Z,5.5
2023-04-04T10:37:46.244Z,6
2023-04-04T10:39:01.488Z,5.5
2023-04-04T10:40:16.752Z,6.7
2023-04-04T10:41:32.012Z,7.5
2023-04-04T10:42:47.266Z,4.6
2023-04-04T10:44:03.513Z,4.8
2023-04-04T10:45:19.750Z,3.9
2023-04-04T10:46:35.976Z,5
2023-04-04T10:47:52.226Z,5.7
2023-04-04T10:49:08.461Z,4.6
2023-04-04T10:50:24.712Z,4.9
2023-04-04T10:51:40.938Z,5.1
2023-04-04T10:52:57.191Z,4.8
2023-04-04T10:54:13.422Z,5.7
2023-04-04T10:55:29.656Z,4.2
2023-04-04T10:56:45.906Z,7.5
2023-04-04T10:58:02.137Z,5.7
2023-04-04T10:59:17.398Z,7.1
2023-04-04T11:00:33.641Z,6.8
2023-04-04T11:01:49.888Z,4.4
2023-04-04T11:03:06.121Z,4.4
2023-04-04T11:04:22.364Z,3.9
2023-04-04T11:05:38.606Z,5.7
2023-04-04T11:06:54.833Z,4.3
2023-04-04T11:08:10.095Z,5.3
2023-04-04T11:09:25.374Z,6.3
2023-04-04T11:10:41.605Z,6.8
2023-04-04T11:11:57.830Z,7.6
2023-04-04T11:13:14.083Z,5.2
2023-04-04T11:14:30.331Z,5
2023-04-04T11:15:46.559Z,5.3
2023-04-04T11:17:02.796Z,4.3
2023-04-04T11:18:19.055Z,4.4
2023-04-04T11:19:35.282Z,4.2
2023-04-04T11:20:51.523Z,5
2023-04-04T11:22:07.766Z,4.1
2023-04-04T11:23:24.012Z,5.5
2023-04-04T11:24:40.241Z,4.3
2023-04-04T11:25:55.497Z,4
2023-04-04T11:27:11.727Z,6
2023-04-04T11:28:27.981Z,4.3
2023-04-04T11:29:44.220Z,3.8
2023-04-04T11:31:00.449Z,4.7
2023-04-04T11:32:16.693Z,5.7
2023-04-04T11:33:32.927Z,7.2
2023-04-04T11:34:48.199Z,2.9
2023-04-04T11:36:03.457Z,5.9
2023-04-04T11:37:18.706Z,5.2
2023-04-04T11:38:33.971Z,5.8
2023-04-04T11:39:49.229Z,5.4
2023-04-04T11:41:04.498Z,4.7
2023-04-04T11:42:20.733Z,4.2
2023-04-04T11:43:36.963Z,4.3
2023-04-04T11:44:53.209Z,3.2
2023-04-04T11:46:09.453Z,4.3
2023-04-04T11:47:25.701Z,4.3
2023-04-04T11:48:41.933Z,4.4
2023-04-04T11:49:58.167Z,3.2
2023-04-04T11:51:14.411Z,5
2023-04-04T11:52:30.648Z,6.7
2023-04-04T11:53:46.890Z,4.7
2023-04-04T11:55:03.130Z,5.2
2023-04-04T11:56:19.381Z,5.9
2023-04-04T11:57:34.623Z,5.4
2023-04-04T11:58:50.881Z,4.1
2023-04-04T12:00:07.115Z,5.4
2023-04-04T12:01:23.346Z,7.1
2023-04-04T12:02:39.587Z,3.8
2023-04-04T12:03:55.827Z,5.6
2023-04-04T12:05:12.078Z,4.2
2023-04-04T12:06:27.347Z,5.1
2023-04-04T12:07:42.597Z,4.1
2023-04-04T12:08:57.850Z,4
2023-04-04T12:10:13.111Z,5.1
2023-04-04T12:11:29.345Z,3.8
2023-04-04T12:12:45.584Z,4.5
2023-04-04T12:14:01.827Z,5.1
2023-04-04T12:15:18.059Z,4.9
2023-04-04T12:16:34.295Z,6.1
2023-04-04T12:17:50.536Z,4.8
2023-04-04T12:19:06.788Z,4.8
2023-04-04T12:20:23.018Z,4.5
2023-04-04T12:21:39.275Z,3.8
2023-04-04T12:22:55.496Z,5.6
2023-04-04T12:24:11.755Z,4.8
2023-04-04T12:25:27.995Z,4.2
2023-04-04T12:26:43.246Z,4.2
2023-04-04T12:27:59.474Z,5.6
2023-04-04T12:29:15.722Z,5.2
2023-04-04T12:30:31.953Z,6.2
2023-04-04T12:31:48.205Z,4.4
2023-04-04T12:33:04.447Z,5.8
2023-04-04T12:34:20.683Z,3.9
2023-04-04T12:35:35.935Z,7.7
2023-04-04T12:36:51.211Z,4.1
2023-04-04T12:38:06.453Z,4.4
2023-04-04T12:39:21.724Z,5.3
2023-04-04T12:40:37.973Z,3.3
2023-04-04T12:41:54.193Z,4.4
2023-04-04T12:43:10.433Z,6
2023-04-04T12:44:26.690Z,3.7
2023-04-04T12:45:42.922Z,5.2
2023-04-04T12:46:59.151Z,3.4
2023-04-04T12:48:15.400Z,2.8
2023-04-04T12:49:31.640Z,4.6
2023-04-04T12:50:47.872Z,4
2023-04-04T12:52:04.126Z,3.6
2023-04-04T12:53:20.364Z,4
2023-04-04T12:54:36.596Z,6
2023-04-04T12:55:51.851Z,4.6
2023-04-04T12:57:08.099Z,5.3
2023-04-04T12:58:24.342Z,5.1
2023-04-04T12:59:40.576Z,5.3
2023-04-04T13:00:56.802Z,4.9
2023-04-04T13:02:13.051Z,5
2023-04-04T13:03:29.308Z,3.8
2023-04-04T13:04:44.556Z,4.4
2023-04-04T13:05:59.808Z,5.8
2023-04-04T13:07:15.061Z,4.9
2023-04-04T13:08:30.327Z,3.4
2023-04-04T13:09:46.568Z,4.2
2023-04-04T13:11:02.808Z,5
2023-04-04T13:12:19.046Z,3.9
2023-04-04T13:13:35.285Z,3.3
2023-04-04T13:14:51.543Z,3.2
2023-04-04T13:16:07.769Z,3.4
2023-04-04T13:17:24.000Z,5.9
2023-04-04T13:18:40.245Z,3.8
2023-04-04T13:19:56.484Z,3.5
2023-04-04T13:21:12.730Z,5
2023-04-04T13:22:28.964Z,2.9
2023-04-04T13:23:45.208Z,4
2023-04-04T13:25:00.467Z,7.2
2023-04-04T13:26:16.704Z,3.1
2023-04-04T13:27:32.942Z,3.5
2023-04-04T13:28:49.166Z,6.8
2023-04-04T13:30:05.420Z,4.8
2023-04-04T13:31:21.665Z,4.4
2023-04-04T13:32:37.892Z,3.8
2023-04-04T13:33:53.147Z,5.2
2023-04-04T13:35:08.413Z,4.5
2023-04-04T13:36:24.660Z,3.3
2023-04-04T13:37:40.893Z,4.1
2023-04-04T13:38:57.136Z,3.4
2023-04-04T13:40:13.387Z,4.6
2023-04-04T13:41:29.633Z,4
2023-04-04T13:42:45.858Z,3.5
2023-04-04T13:44:02.109Z,4.8
2023-04-04T13:45:18.333Z,3.2
2023-04-04T13:46:34.569Z,4.6
2023-04-04T13:47:50.808Z,4.5
2023-04-04T13:49:07.053Z,3.5
2023-04-04T13:50:23.293Z,4.8
2023-04-04T13:51:38.551Z,4
2023-04-04T13:52:54.782Z,4.2
2023-04-04T13:54:11.014Z,4.5
2023-04-04T13:55:27.276Z,3.4
2023-04-04T13:56:43.507Z,4.7
2023-04-04T13:57:59.739Z,4
2023-04-04T13:59:15.983Z,4.9
2023-04-04T14:00:31.247Z,3.9
2023-04-04T14:01:46.505Z,6.8
2023-04-04T14:03:01.752Z,4
2023-04-04T14:04:17.006Z,3.7
2023-04-04T14:05:33.260Z,4.5
2023-04-04T14:06:48.531Z,3.8
2023-04-04T14:08:03.764Z,3.8
2023-04-04T14:09:19.032Z,3.3
2023-04-04T14:10:35.282Z,4.3
2023-04-04T14:11:51.508Z,3.3
2023-04-04T14:13:07.754Z,4.4
2023-04-04T14:14:23.983Z,4.3
2023-04-04T14:15:40.235Z,5.1
2023-04-04T14:16:56.475Z,3.7
2023-04-04T14:18:12.709Z,3.3
2023-04-04T14:19:28.955Z,4.4
2023-04-04T14:20:45.196Z,4.6
2023-04-04T14:22:01.430Z,3.6
2023-04-04T14:23:17.667Z,4.6
2023-04-04T14:24:33.925Z,3.8
2023-04-04T14:25:49.174Z,4.7
2023-04-04T14:27:05.415Z,5.7
2023-04-04T14:28:21.645Z,6
2023-04-04T14:29:37.887Z,5.6
2023-04-04T14:30:54.119Z,5.1
2023-04-04T14:32:10.373Z,6.3
2023-04-04T14:33:25.639Z,5.3
2023-04-04T14:34:40.888Z,5.5
2023-04-04T14:35:57.138Z,3.2
2023-04-04T14:37:13.370Z,5.8
2023-04-04T14:38:29.610Z,2.9
2023-04-04T14:39:45.852Z,3.9
2023-04-04T14:41:02.094Z,3.9
2023-04-04T14:42:18.000Z,4.5
2023-04-04T14:43:34.572Z,5.6
2023-04-04T14:44:50.826Z,4.6
2023-04-04T14:46:07.057Z,6.9
2023-04-04T14:47:23.291Z,5.3
2023-04-04T14:48:39.530Z,3.4
2023-04-04T14:49:55.770Z,5.2
2023-04-04T14:51:11.032Z,4.5
2023-04-04T14:52:27.281Z,4
2023-04-04T14:53:43.502Z,7.5
2023-04-04T14:54:59.741Z,4.7
2023-04-04T14:56:15.970Z,6.3
2023-04-04T14:57:32.230Z,4.5
2023-04-04T14:58:48.464Z,6.1
2023-04-04T15:00:03.724Z,5.6
2023-04-04T15:01:18.977Z,5.2
2023-04-04T15:02:34.242Z,5.7
2023-04-04T15:03:49.488Z,3.5
2023-04-04T15:05:04.759Z,4.9
2023-04-04T15:06:20.022Z,5.7
2023-04-04T15:07:36.260Z,5.1
2023-04-04T15:08:52.487Z,5.4
2023-04-04T15:10:08.735Z,5.5
2023-04-04T15:11:24.973Z,5.5
2023-04-04T15:12:41.216Z,4.1
2023-04-04T15:13:57.442Z,4.3
2023-04-04T15:15:13.682Z,3.4
2023-04-04T15:16:29.921Z,6
2023-04-04T15:17:46.176Z,4.9
2023-04-04T15:19:02.410Z,4.6
2023-04-04T15:20:18.630Z,4.4
2023-04-04T15:21:34.872Z,4.3
2023-04-04T15:22:50.139Z,5
2023-04-04T15:24:06.370Z,4.4
2023-04-04T15:25:22.618Z,4.4
2023-04-04T15:26:38.856Z,3.1
2023-04-04T15:27:55.092Z,3.4
2023-04-04T15:29:11.335Z,4.4
2023-04-04T15:30:27.568Z,3.3
2023-04-04T15:31:42.835Z,3.4
2023-04-04T15:32:58.085Z,6.2
2023-04-04T15:34:14.314Z,5.2
2023-04-04T15:35:30.568Z,4
2023-04-04T15:36:46.805Z,4.5
2023-04-04T15:38:03.032Z,4.6
2023-04-04T15:39:19.287Z,4.2
2023-04-04T15:40:35.512Z,4.2
2023-04-04T15:41:51.759Z,3.2
2023-04-04T15:43:07.996Z,6.9
2023-04-04T15:44:24.220Z,3.9
2023-04-04T15:45:40.470Z,5.2
2023-04-04T15:46:56.707Z,2.9
2023-04-04T15:48:12.951Z,7.2
2023-04-04T15:49:28.211Z,5.2
2023-04-04T15:50:44.446Z,4.1
2023-04-04T15:52:00.696Z,4.2
2023-04-04T15:53:16.911Z,4.7
2023-04-04T15:54:33.148Z,5.3
2023-04-04T15:55:49.393Z,4.7
2023-04-04T15:57:05.631Z,3.3
2023-04-04T15:58:20.886Z,4.1
2023-04-04T15:59:36.150Z,4.4
2023-04-04T16:00:51.411Z,3.9
2023-04-04T16:02:06.655Z,4.6
2023-04-04T16:03:22.908Z,5.5
2023-04-04T16:04:39.131Z,4.7
2023-04-04T16:05:55.380Z,5.6
2023-04-04T16:07:11.608Z,5.7
2023-04-04T16:08:27.853Z,4.8
2023-04-04T16:09:44.092Z,4.9
2023-04-04T16:11:00.330Z,3.3
2023-04-04T16:12:16.574Z,4
2023-04-04T16:13:32.808Z,4.7
2023-04-04T16:14:49.060Z,3.3
2023-04-04T16:16:05.295Z,5.7
2023-04-04T16:17:21.518Z,5.3
2023-04-04T16:18:36.779Z,4.3
2023-04-04T16:19:53.010Z,4.8
2023-04-04T16:21:09.257Z,4.4
2023-04-04T16:22:25.499Z,4.9
2023-04-04T16:23:41.742Z,3.9
2023-04-04T16:24:57.977Z,4.8
2023-04-04T16:26:14.212Z,4.8
2023-04-04T16:27:29.477Z,6.8
2023-04-04T16:28:44.727Z,7.3
2023-04-04T16:29:59.989Z,5.1
2023-04-04T16:31:15.242Z,4.5
2023-04-04T16:32:31.485Z,3.7
2023-04-04T16:33:47.736Z,4.5
2023-04-04T16:35:03.966Z,3.6
2023-04-04T16:36:20.216Z,4.7
2023-04-04T16:37:36.443Z,5.4
2023-04-04T16:38:52.674Z,4.7
2023-04-04T16:40:08.937Z,5
2023-04-04T16:41:25.154Z,3.4
2023-04-04T16:42:41.391Z,4.7
2023-04-04T16:43:57.646Z,4.4
2023-04-04T16:45:13.895Z,4.4
2023-04-04T16:46:30.111Z,4.4
2023-04-04T16:47:45.366Z,5.6
2023-04-04T16:49:01.620Z,5.4
2023-04-04T16:50:17.856Z,4.4
2023-04-04T16:51:34.092Z,3.7
2023-04-04T16:52:50.327Z,6.7
2023-04-04T16:54:06.576Z,5.6
2023-04-04T16:55:22.800Z,5.3
2023-04-04T16:56:38.063Z,4.9
2023-04-04T16:57:53.325Z,5.6
2023-04-04T16:59:09.567Z,5.9
2023-04-04T17:00:25.800Z,5.2
2023-04-04T17:01:42.052Z,5.5
2023-04-04T17:02:58.291Z,4.4
2023-04-04T17:04:14.528Z,6
2023-04-04T17:05:30.783Z,4.3
2023-04-04T17:06:46.998Z,4.2
2023-04-04T17:08:03.259Z,4.4
2023-04-04T17:09:19.499Z,5.1
2023-04-04T17:10:35.730Z,6.7
2023-04-04T17:11:51.967Z,5.3
2023-04-04T17:13:08.203Z,6.6
2023-04-04T17:14:23.467Z,7.3
2023-04-04T17:15:39.713Z,4.7
2023-04-04T17:16:55.954Z,6.2
2023-04-04T17:18:12.182Z,5.6
2023-04-04T17:19:28.431Z,6.6
2023-04-04T17:20:44.683Z,5.3
2023-04-04T17:22:00.924Z,6.5
2023-04-04T17:23:16.161Z,9.8
2023-04-04T17:24:31.441Z,5.8
2023-04-04T17:25:46.688Z,6
2023-04-04T17:27:01.945Z,6.6
2023-04-04T17:28:18.204Z,9.7
2023-04-04T17:29:34.431Z,6.3
2023-04-04T17:30:50.669Z,5.6
2023-04-04T17:32:06.895Z,6
2023-04-04T17:33:23.169Z,5.6
2023-04-04T17:34:39.381Z,5.3